»·PEaware :: N48500 KRDD-KSMF

N48500 :: KRDD-KSMF

FLIGHT INFORMATION

Flight Status: Arrived
Operator: Privately registered:
United States
More flights under this callsign
Pilot: Julio S. (28535)
Aircraft: CESSNA 152 AEROBAT
(C152)
More flights by this aircraft type
Origin: KRDD Redding Mun
United States
Destination: KSMF Sacramento Intl
United States
More flights between these airports :: More routes between these airports
Route: +
File this flight plan on PilotEdge
Remarks:
Altitude:
(Current/Filed)
0ft
Speed:
(Current/Filed)
0kts
Departed: 20-Sep-20 09:28 AM
Arrived: 20-Sep-20 11:27 AM
Distance/Time
Traveled:
113nm/1:58
Distance/Time
To Go:
Arrived

Flight Plot

Page will automatically refresh every two minutes.

Flight plan parsing failed; only flown route is shown


Map Options




Map Legend


Flown Route
Filed Route
Departure Airport
Arrival Airport
Navaid (VOR, NDB)
Fix

Horizontal Profiles

Position Reports

Time Latitude Longitude Heading Altitude Ground
Speed
20-Sep-20 09:17 40.508629 -122.297684 180 496ft 0kts
20-Sep-20 09:18 40.508629 -122.297684 180 496ft 0kts
20-Sep-20 09:19 40.508609 -122.297684 180 496ft 1kts
20-Sep-20 09:20 40.507873 -122.297861 50 495ft 15kts
20-Sep-20 09:21 40.506784 -122.296318 181 493ft 23kts
20-Sep-20 09:22 40.502704 -122.296354 184 492ft 20kts
20-Sep-20 09:23 40.502048 -122.296097 130 492ft 0kts
20-Sep-20 09:24 40.502048 -122.296096 130 492ft 0kts
20-Sep-20 09:25 40.502048 -122.296097 130 492ft 0kts
20-Sep-20 09:26 40.502007 -122.296034 131 491ft 3kts
20-Sep-20 09:27 40.503815 -122.294917 0 493ft 56kts
20-Sep-20 09:28 40.514902 -122.294301 356 889ft 69kts
20-Sep-20 09:29 40.517315 -122.306141 225 1323ft 86kts
20-Sep-20 09:30 40.501740 -122.307429 179 1729ft 97kts
20-Sep-20 09:31 40.486231 -122.303127 166 2162ft 96kts
20-Sep-20 09:32 40.470663 -122.298637 162 2569ft 97kts
20-Sep-20 09:33 40.456330 -122.292480 163 3031ft 90kts
20-Sep-20 09:34 40.442294 -122.286470 158 3464ft 86kts
20-Sep-20 09:35 40.429247 -122.280003 171 3926ft 84kts
20-Sep-20 09:36 40.414862 -122.277260 176 4377ft 83kts
20-Sep-20 09:37 40.399876 -122.276567 183 4821ft 82kts
20-Sep-20 09:38 40.384954 -122.278686 186 5254ft 83kts
20-Sep-20 09:39 40.369074 -122.280853 186 5440ft 99kts
20-Sep-20 09:40 40.350948 -122.281762 176 5505ft 100kts
20-Sep-20 09:41 40.332202 -122.278924 173 5525ft 101kts
20-Sep-20 09:42 40.313883 -122.274742 166 5482ft 101kts
20-Sep-20 09:43 40.296311 -122.269499 165 5470ft 99kts
20-Sep-20 09:44 40.279514 -122.264092 163 5514ft 94kts
20-Sep-20 09:45 40.263030 -122.258597 170 5517ft 96kts
20-Sep-20 09:46 40.245946 -122.254511 170 5542ft 95kts
20-Sep-20 09:47 40.228700 -122.251105 174 5523ft 98kts
20-Sep-20 09:48 40.211175 -122.249022 173 5511ft 98kts
20-Sep-20 09:49 40.193156 -122.247600 176 5481ft 98kts
20-Sep-20 09:50 40.176062 -122.247664 176 5462ft 97kts
20-Sep-20 09:51 40.158957 -122.245656 173 5465ft 95kts
20-Sep-20 09:52 40.142582 -122.242341 170 5522ft 90kts
20-Sep-20 09:53 40.126022 -122.239130 171 5534ft 92kts
20-Sep-20 09:54 40.108930 -122.237222 176 5507ft 96kts
20-Sep-20 09:55 40.091611 -122.236005 176 5493ft 96kts
20-Sep-20 09:56 40.074284 -122.234017 175 5489ft 95kts
20-Sep-20 09:57 40.056912 -122.230375 166 5488ft 95kts
20-Sep-20 09:58 40.039630 -122.225653 172 5487ft 96kts
20-Sep-20 09:59 40.022458 -122.222933 171 5489ft 95kts
20-Sep-20 10:00 40.005300 -122.220263 170 5488ft 96kts
20-Sep-20 10:01 39.988209 -122.216967 172 5492ft 95kts
20-Sep-20 10:02 39.970848 -122.213946 171 5496ft 95kts
20-Sep-20 10:03 39.953401 -122.210702 171 5498ft 95kts
20-Sep-20 10:04 39.935911 -122.208099 170 5500ft 95kts
20-Sep-20 10:05 39.918650 -122.205706 174 5507ft 94kts
20-Sep-20 10:06 39.900942 -122.203509 171 5509ft 94kts
20-Sep-20 10:07 39.884968 -122.200839 172 5512ft 94kts
20-Sep-20 10:08 39.868974 -122.198282 175 5513ft 94kts
20-Sep-20 10:09 39.853253 -122.194784 171 5519ft 93kts
20-Sep-20 10:10 39.837343 -122.192471 175 5521ft 93kts
20-Sep-20 10:11 39.821461 -122.189850 169 5530ft 93kts
20-Sep-20 10:12 39.804750 -122.185533 171 5529ft 93kts
20-Sep-20 10:13 39.789054 -122.182990 175 5531ft 92kts
20-Sep-20 10:14 39.773754 -122.179459 164 5526ft 93kts
20-Sep-20 10:15 39.758787 -122.173561 162 5530ft 92kts
20-Sep-20 10:16 39.743797 -122.167059 163 5530ft 92kts
20-Sep-20 10:17 39.728433 -122.161604 166 5531ft 92kts
20-Sep-20 10:18 39.712609 -122.157676 172 5530ft 93kts
20-Sep-20 10:19 39.695356 -122.154954 176 5534ft 92kts
20-Sep-20 10:20 39.679234 -122.153364 176 5534ft 92kts
20-Sep-20 10:21 39.663074 -122.151306 175 5534ft 93kts
20-Sep-20 10:22 39.646611 -122.150068 178 5536ft 93kts
20-Sep-20 10:23 39.630292 -122.148568 174 5539ft 92kts
20-Sep-20 10:24 39.614134 -122.145831 170 5539ft 92kts
20-Sep-20 10:25 39.597907 -122.143066 173 5529ft 93kts
20-Sep-20 10:26 39.581723 -122.140982 174 5535ft 92kts
20-Sep-20 10:27 39.565661 -122.138782 174 5535ft 92kts
20-Sep-20 10:28 39.549715 -122.136551 166 5539ft 92kts
20-Sep-20 10:29 39.533858 -122.132638 173 5533ft 93kts
20-Sep-20 10:30 39.518254 -122.128658 159 5532ft 93kts
20-Sep-20 10:31 39.503037 -122.121353 158 5528ft 92kts
20-Sep-20 10:32 39.488158 -122.113362 167 5515ft 93kts
20-Sep-20 10:33 39.472354 -122.109068 170 5516ft 92kts
20-Sep-20 10:34 39.456513 -122.106264 175 5506ft 92kts
20-Sep-20 10:35 39.440671 -122.104852 179 5517ft 92kts
20-Sep-20 10:36 39.424927 -122.102270 170 5523ft 92kts
20-Sep-20 10:37 39.409201 -122.098793 170 5507ft 91kts
20-Sep-20 10:38 39.393570 -122.095608 172 5523ft 93kts
20-Sep-20 10:39 39.377963 -122.092774 170 5536ft 92kts
20-Sep-20 10:40 39.362820 -122.087660 163 5535ft 93kts
20-Sep-20 10:41 39.348130 -122.080339 161 5541ft 92kts
20-Sep-20 10:42 39.333342 -122.073282 148 5539ft 93kts
20-Sep-20 10:43 39.320493 -122.060342 138 5552ft 92kts
20-Sep-20 10:44 39.307470 -122.047178 145 5517ft 94kts
20-Sep-20 10:45 39.293602 -122.036047 151 5535ft 92kts
20-Sep-20 10:46 39.279236 -122.026631 154 5531ft 92kts
20-Sep-20 10:47 39.265274 -122.015880 134 5531ft 93kts
20-Sep-20 10:48 39.253125 -122.001508 137 5540ft 92kts
20-Sep-20 10:50 39.240897 -121.987280 138 5541ft 92kts
20-Sep-20 10:51 39.228816 -121.972862 143 5546ft 92kts
20-Sep-20 10:52 39.215835 -121.959260 132 5551ft 92kts
20-Sep-20 10:53 39.204150 -121.943527 136 5542ft 94kts
20-Sep-20 10:54 39.190852 -121.928699 140 5529ft 94kts
20-Sep-20 10:55 39.177431 -121.914345 143 5524ft 93kts
20-Sep-20 10:56 39.163130 -121.901983 145 5515ft 94kts
20-Sep-20 10:57 39.148865 -121.889339 145 5510ft 93kts
20-Sep-20 10:58 39.134712 -121.876301 142 5504ft 93kts
20-Sep-20 10:59 39.121373 -121.861721 126 5487ft 94kts
20-Sep-20 11:00 39.111201 -121.843345 124 5502ft 93kts
20-Sep-20 11:01 39.100201 -121.825439 130 5508ft 93kts
20-Sep-20 11:02 39.086785 -121.810875 144 5516ft 94kts
20-Sep-20 11:03 39.072729 -121.797538 146 5528ft 93kts
20-Sep-20 11:04 39.059246 -121.783496 135 5535ft 93kts
20-Sep-20 11:05 39.046209 -121.769070 142 5544ft 93kts
20-Sep-20 11:05 39.034971 -121.757493 142 5549ft 94kts
20-Sep-20 11:07 39.019736 -121.740465 137 5556ft 94kts
20-Sep-20 11:08 39.006197 -121.726853 144 5548ft 95kts
20-Sep-20 11:08 38.993949 -121.717448 151 5538ft 95kts
20-Sep-20 11:09 38.978590 -121.707211 157 5523ft 95kts
20-Sep-20 11:11 38.960360 -121.695925 152 5511ft 96kts
20-Sep-20 11:11 38.949875 -121.675742 119 5446ft 96kts
20-Sep-20 11:12 38.941621 -121.648940 115 5261ft 97kts
20-Sep-20 11:14 38.913550 -121.638499 164 4116ft 132kts
20-Sep-20 11:14 38.892648 -121.627194 152 3291ft 126kts
20-Sep-20 11:15 38.869817 -121.615340 160 2591ft 103kts
20-Sep-20 11:16 38.845277 -121.610103 176 2224ft 97kts
20-Sep-20 11:17 38.823099 -121.603379 164 2022ft 97kts
20-Sep-20 11:18 38.801633 -121.599352 177 1941ft 87kts
20-Sep-20 11:19 38.784479 -121.599619 182 1584ft 80kts
20-Sep-20 11:20 38.768306 -121.600172 179 1232ft 75kts
20-Sep-20 11:21 38.754498 -121.599976 179 934ft 66kts
20-Sep-20 11:22 38.741087 -121.600333 182 732ft 65kts
20-Sep-20 11:23 38.728593 -121.600698 179 526ft 63kts
20-Sep-20 11:24 38.717442 -121.600864 180 308ft 63kts
20-Sep-20 11:25 38.706612 -121.601097 180 67ft 58kts
20-Sep-20 11:26 38.701320 -121.599770 75 24ft 3kts
20-Sep-20 11:27 38.701332 -121.599705 76 24ft 3kts
20-Sep-20 11:28 38.697681 -121.598544 167 24ft 42kts

Navigation Log

Ident Type
Flight plan parsing failed, navigation log unavailable